Time;durP1;ratioP1;P1;durP2;ratioP2;P2;SDS_P1;SDS_P2;PMS_P1;PMS_P2;Temp;Humidity;BMP_temperature;BMP_pressure;BME280_temperature;BME280_humidity;BME280_pressure;Samples;Min_cycle;Max_cycle;Signal;HPM_P1;HPM_P2
2022/09/02 00:00:59;;;;;;;1.50;1.40;;;;;;;16.18;52.42;101588.09;5074420;28;20472;-86
2022/09/02 00:03:30;;;;;;;1.70;1.60;;;;;;;16.09;52.89;101590.97;5074482;28;20028;-86
2022/09/02 00:05:56;;;;;;;1.75;1.63;;;;;;;16.03;52.37;101591.09;5073303;28;20029;-86
2022/09/02 00:08:22;;;;;;;2.30;1.52;;;;;;;16.01;52.73;101590.28;5074722;28;20074;-87
2022/09/02 00:10:47;;;;;;;1.60;1.50;;;;;;;15.97;53.56;101589.50;5074617;28;20070;-85
2022/09/02 00:13:15;;;;;;;1.87;1.73;;;;;;;15.89;53.26;101591.47;5073428;28;20037;-86
2022/09/02 00:15:42;;;;;;;1.95;1.55;;;;;;;15.85;52.77;101584.56;5074419;28;20054;-86
2022/09/02 00:18:11;;;;;;;1.30;1.20;;;;;;;15.84;52.86;101586.34;5073448;28;20033;-87
2022/09/02 00:20:36;;;;;;;1.40;1.30;;;;;;;15.84;52.28;101585.44;5073866;28;20081;-86
2022/09/02 00:23:02;;;;;;;1.00;1.00;;;;;;;15.84;53.07;101585.44;5074313;28;20500;-86
2022/09/02 00:25:27;;;;;;;2.60;1.60;;;;;;;15.79;52.81;101582.94;5074023;28;20040;-87
2022/09/02 00:27:52;;;;;;;1.40;1.30;;;;;;;15.78;53.83;101580.38;5065939;28;20033;-86
2022/09/02 00:30:18;;;;;;;1.63;1.13;;;;;;;15.78;52.14;101581.22;5072734;28;20103;-87
2022/09/02 00:32:43;;;;;;;2.07;1.50;;;;;;;15.73;54.29;101578.72;5073945;28;20154;-86
2022/09/02 00:35:09;;;;;;;1.93;1.60;;;;;;;15.67;54.45;101572.78;5072964;28;20047;-86
2022/09/02 00:37:36;;;;;;;1.73;1.63;;;;;;;15.61;54.07;101568.56;5073261;28;20488;-86
2022/09/02 00:40:04;;;;;;;1.85;1.50;;;;;;;15.57;54.85;101575.63;5073701;28;20021;-86
2022/09/02 00:42:29;;;;;;;3.20;1.48;;;;;;;15.53;54.40;101573.13;5073278;28;20028;-86
2022/09/02 00:44:54;;;;;;;2.57;1.63;;;;;;;15.48;55.08;101570.63;5073581;28;20027;-86
2022/09/02 00:47:20;;;;;;;2.63;1.60;;;;;;;15.47;54.58;101573.28;5072936;28;20021;-86
2022/09/02 00:49:50;;;;;;;2.45;1.80;;;;;;;15.46;54.13;101574.19;5074000;28;20048;-87
2022/09/02 00:52:23;;;;;;;1.40;1.30;;;;;;;15.47;53.79;101568.06;5067495;28;20397;-86
2022/09/02 00:54:52;;;;;;;1.33;1.23;;;;;;;15.48;53.67;101564.56;5071369;28;20484;-87
2022/09/02 00:57:22;;;;;;;1.58;1.48;;;;;;;15.45;54.40;101562.84;5073957;28;20028;-87
2022/09/02 01:00:16;;;;;;;1.70;1.60;;;;;;;15.42;54.70;101562.94;5073753;28;20066;-87
2022/09/02 01:02:46;;;;;;;1.33;1.23;;;;;;;15.41;54.07;101566.47;5070342;28;20046;-87
2022/09/02 01:05:15;;;;;;;1.50;1.40;;;;;;;15.39;54.64;101557.78;5072941;28;20064;-87
2022/09/02 01:07:42;;;;;;;1.30;1.20;;;;;;;15.36;54.19;101556.09;5073450;28;20041;-87
2022/09/02 01:10:15;;;;;;;0.90;0.90;;;;;;;15.35;55.06;101559.63;5072271;28;20037;-87
2022/09/02 01:12:41;;;;;;;1.60;1.50;;;;;;;15.32;54.44;101554.44;5073606;28;20445;-87
2022/09/02 01:15:09;;;;;;;2.47;1.67;;;;;;;15.29;54.39;101557.13;5073239;28;20051;-87
2022/09/02 01:17:37;;;;;;;2.78;1.80;;;;;;;15.25;55.26;101556.34;5072842;28;20033;-87
2022/09/02 01:20:06;;;;;;;1.95;1.20;;;;;;;15.26;54.71;101558.06;5073022;28;20032;-87
2022/09/02 01:22:32;;;;;;;1.63;1.35;;;;;;;15.21;55.66;101551.22;5072436;28;20058;-87
2022/09/02 01:25:04;;;;;;;1.80;1.70;;;;;;;15.20;55.51;101559.97;5071799;28;20024;-87
2022/09/02 01:27:30;;;;;;;1.83;1.60;;;;;;;15.15;54.58;101557.47;5069465;28;20317;-87
2022/09/02 01:29:58;;;;;;;1.80;1.70;;;;;;;15.11;55.61;101554.06;5071635;28;20048;-86
2022/09/02 01:32:24;;;;;;;1.60;1.27;;;;;;;15.09;55.18;101549.75;5073006;28;20029;-87
2022/09/02 01:34:50;;;;;;;1.30;1.20;;;;;;;15.08;55.04;101558.50;5072972;28;20021;-87
2022/09/02 01:37:15;;;;;;;1.03;1.03;;;;;;;15.08;55.45;101553.28;5070535;28;20021;-87
2022/09/02 01:39:41;;;;;;;1.67;1.40;;;;;;;15.05;55.35;101550.72;5072955;28;20024;-87
2022/09/02 01:42:06;;;;;;;1.50;1.40;;;;;;;15.06;54.89;101552.44;5072864;28;20096;-87
2022/09/02 01:44:34;;;;;;;1.03;1.03;;;;;;;15.07;54.91;101543.72;5072028;28;20465;-87
2022/09/02 01:46:59;;;;;;;1.20;1.20;;;;;;;15.04;55.25;101541.16;5072450;28;20074;-86
2022/09/02 01:49:24;;;;;;;2.07;1.80;;;;;;;14.97;55.83;101543.06;5072860;28;20033;-87
2022/09/02 01:51:53;;;;;;;1.77;1.67;;;;;;;14.96;54.98;101539.59;5071895;28;20120;-87
2022/09/02 01:54:19;;;;;;;1.42;1.33;;;;;;;14.94;55.94;101537.88;5067053;28;20036;-88
2022/09/02 01:56:44;;;;;;;1.03;1.03;;;;;;;14.92;55.22;101543.16;5073017;28;20158;-87
2022/09/02 01:59:16;;;;;;;1.70;1.60;;;;;;;14.88;56.82;101540.66;5071944;28;20434;-87
2022/09/02 02:01:41;;;;;;;2.20;1.50;;;;;;;14.85;56.18;101544.19;5072998;28;20501;-86
2022/09/02 02:04:07;;;;;;;2.13;1.37;;;;;;;14.83;57.01;101540.75;5072227;28;20044;-87
2022/09/02 02:06:33;;;;;;;1.80;1.70;;;;;;;14.79;56.67;101537.34;5071908;28;20045;-87
2022/09/02 02:08:58;;;;;;;1.53;1.43;;;;;;;14.75;57.46;101540.06;5072404;28;20111;-86
2022/09/02 02:11:24;;;;;;;1.97;1.87;;;;;;;14.70;56.91;101528.84;5072940;28;20017;-86
2022/09/02 02:13:50;;;;;;;1.98;1.70;;;;;;;14.67;57.34;101537.63;5071293;28;20036;-86
2022/09/02 02:16:15;;;;;;;1.67;1.57;;;;;;;14.62;57.99;101528.97;5072703;28;20379;-87
2022/09/02 02:18:40;;;;;;;1.80;1.70;;;;;;;14.61;56.79;101529.84;5063845;28;20556;-87
2022/09/02 02:21:06;;;;;;;1.50;1.40;;;;;;;14.61;56.68;101527.25;5070738;28;20036;-86
2022/09/02 02:23:31;;;;;;;1.60;1.50;;;;;;;14.61;57.82;101533.34;5069071;28;20028;-87
2022/09/02 02:25:57;;;;;;;1.77;1.67;;;;;;;14.55;57.02;101523.00;5071517;28;20108;-86
2022/09/02 02:28:22;;;;;;;2.87;2.07;;;;;;;14.48;58.51;101524.88;5073057;28;20067;-87
2022/09/02 02:30:48;;;;;;;2.83;2.20;;;;;;;14.49;57.62;101531.00;5072514;28;20415;-87
2022/09/02 02:33:13;;;;;;;1.90;1.67;;;;;;;14.47;58.09;101527.53;5071817;28;20086;-87
2022/09/02 02:35:39;;;;;;;1.60;1.50;;;;;;;14.48;58.52;101529.25;5072452;28;20032;-86
2022/09/02 02:38:05;;;;;;;2.72;1.80;;;;;;;14.46;56.90;101529.31;5063560;28;20123;-87
2022/09/02 02:40:30;;;;;;;2.50;1.80;;;;;;;14.46;58.21;101525.81;5073386;28;20380;-87
2022/09/02 02:42:56;;;;;;;1.50;1.40;;;;;;;14.47;58.00;101524.94;5075999;28;20108;-87
2022/09/02 02:45:22;;;;;;;1.93;1.73;;;;;;;14.44;57.56;101524.97;5076285;28;20302;-87
2022/09/02 02:47:49;;;;;;;1.98;1.50;;;;;;;14.45;58.49;101524.09;5073478;28;20047;-86
2022/09/02 02:50:17;;;;;;;2.20;2.00;;;;;;;14.42;58.33;101521.53;5070419;28;20078;-86
2022/09/02 02:52:43;;;;;;;2.72;1.77;;;;;;;14.37;58.94;101513.81;5075972;28;20500;-87
2022/09/02 02:55:10;;;;;;;2.20;1.70;;;;;;;14.39;57.67;101519.00;5074884;28;20048;-86
2022/09/02 02:57:38;;;;;;;1.55;1.45;;;;;;;14.39;57.51;101517.25;5067786;28;20503;-87
2022/09/02 03:00:20;;;;;;;1.45;1.30;;;;;;;14.41;57.87;101522.47;5075619;28;20105;-87
2022/09/02 03:02:45;;;;;;;1.30;1.20;;;;;;;14.40;57.10;101516.38;5070794;28;20468;-87
2022/09/02 03:05:12;;;;;;;1.67;1.57;;;;;;;14.37;58.73;101508.59;5075278;28;20033;-87
2022/09/02 03:07:38;;;;;;;3.08;2.00;;;;;;;14.33;57.96;101513.00;5075664;28;20461;-87
2022/09/02 03:10:07;;;;;;;3.17;2.23;;;;;;;14.29;58.79;101515.72;5074692;28;20025;-87
2022/09/02 03:12:33;;;;;;;1.92;1.70;;;;;;;14.28;58.17;101509.66;5075723;28;20028;-87
2022/09/02 03:14:58;;;;;;;1.80;1.70;;;;;;;14.27;57.76;101513.16;5074546;28;20062;-87
2022/09/02 03:17:24;;;;;;;1.60;1.50;;;;;;;14.29;57.81;101502.66;5075481;28;20439;-87
2022/09/02 03:19:49;;;;;;;1.60;1.50;;;;;;;14.29;59.16;101510.50;5075374;28;20029;-87
2022/09/02 03:22:15;;;;;;;2.03;1.60;;;;;;;14.28;58.04;101509.66;5074614;28;20032;-87
2022/09/02 03:24:40;;;;;;;1.40;1.30;;;;;;;14.28;58.79;101511.38;5075512;28;20025;-87
2022/09/02 03:27:05;;;;;;;1.70;1.60;;;;;;;14.28;57.23;101514.00;5075203;28;20468;-88
2022/09/02 03:29:31;;;;;;;1.57;1.47;;;;;;;14.29;57.69;101500.94;5074596;28;20029;-87
2022/09/02 03:31:56;;;;;;;1.20;1.20;;;;;;;14.30;57.88;101509.59;5075023;28;20028;-86
2022/09/02 03:34:21;;;;;;;2.40;1.60;;;;;;;14.28;58.43;101506.16;5075208;28;20032;-86
2022/09/02 03:36:47;;;;;;;2.00;1.80;;;;;;;14.21;58.62;101511.53;5071748;28;20033;-87
2022/09/02 03:39:12;;;;;;;1.80;1.70;;;;;;;14.20;58.26;101495.88;5075164;28;20426;-87
2022/09/02 03:41:40;;;;;;;3.10;2.30;;;;;;;14.13;59.64;101504.72;5075225;28;20027;-86
2022/09/02 03:44:06;;;;;;;2.65;2.20;;;;;;;14.10;59.47;101505.66;5073702;28;20024;-87
2022/09/02 03:46:31;;;;;;;3.83;2.30;;;;;;;14.04;59.22;101497.91;5075400;28;20024;-87
2022/09/02 03:48:56;;;;;;;2.10;1.80;;;;;;;14.05;58.74;101500.53;5074835;28;20427;-87
2022/09/02 03:51:24;;;;;;;1.87;1.73;;;;;;;14.05;58.74;101494.44;5074044;28;20020;-87
2022/09/02 03:53:50;;;;;;;2.30;2.00;;;;;;;14.05;58.46;101494.44;5067091;28;20040;-87
2022/09/02 03:56:16;;;;;;;2.40;2.20;;;;;;;14.00;59.66;101497.13;5075015;28;20025;-87
2022/09/02 03:58:44;;;;;;;2.28;2.08;;;;;;;14.01;58.81;101495.41;5074679;28;20020;-87
2022/09/02 04:01:19;;;;;;;3.85;2.30;;;;;;;13.97;59.74;101486.75;5075170;28;20029;-86
2022/09/02 04:03:45;;;;;;;2.30;2.10;;;;;;;13.97;59.35;101484.13;5074839;28;20085;-87
2022/09/02 04:06:12;;;;;;;4.85;2.20;;;;;;;13.95;59.51;101480.72;5073991;28;20081;-86
2022/09/02 04:08:38;;;;;;;;;;;;;;;13.96;59.58;101485.00;5075251;28;20028;-86
2022/09/02 04:11:08;;;;;;;2.08;1.88;;;;;;;13.98;59.48;101485.00;5074475;28;20429;-86
2022/09/02 04:13:34;;;;;;;3.75;2.20;;;;;;;13.96;60.16;101485.00;5066680;28;20123;-86
2022/09/02 04:16:08;;;;;;;2.40;2.00;;;;;;;13.96;59.47;101481.56;5073873;28;20036;-87
2022/09/02 04:18:34;;;;;;;2.72;1.90;;;;;;;13.97;59.29;101481.53;5073803;28;20036;-87
2022/09/02 04:21:00;;;;;;;1.60;1.50;;;;;;;14.00;58.85;101481.47;5074355;28;20024;-86
2022/09/02 04:23:25;;;;;;;1.73;1.63;;;;;;;14.02;59.08;101478.81;5074695;28;20032;-86
2022/09/02 04:25:50;;;;;;;1.47;1.37;;;;;;;14.03;60.41;101481.41;5073309;28;20369;-86
2022/09/02 04:28:16;;;;;;;2.37;2.00;;;;;;;13.99;58.79;101479.75;5074300;28;20167;-87
2022/09/02 04:30:42;;;;;;;2.53;2.10;;;;;;;13.92;60.95;101480.75;5074401;28;20032;-86
2022/09/02 04:33:08;;;;;;;2.50;2.13;;;;;;;13.91;59.97;101476.44;5072849;28;20032;-86
2022/09/02 04:35:34;;;;;;;2.97;2.10;;;;;;;13.85;60.84;101471.31;5074235;28;20024;-86
2022/09/02 04:38:00;;;;;;;3.30;1.92;;;;;;;13.85;59.61;101471.31;5073848;28;20035;-86
2022/09/02 04:40:26;;;;;;;1.60;1.50;;;;;;;13.86;59.07;101468.69;5065268;28;20052;-86
2022/09/02 04:42:52;;;;;;;1.73;1.57;;;;;;;13.89;58.83;101465.16;5073710;28;20484;-86
2022/09/02 04:45:18;;;;;;;1.50;1.20;;;;;;;13.92;59.14;101470.31;5074644;28;20020;-88
2022/09/02 04:47:43;;;;;;;1.40;1.30;;;;;;;13.93;59.90;101471.16;5073518;28;20666;-87
2022/09/02 04:50:09;;;;;;;1.73;1.50;;;;;;;13.90;60.33;101469.50;5073576;28;20070;-86
2022/09/02 04:52:35;;;;;;;2.73;1.77;;;;;;;13.88;59.82;101471.25;5073893;28;20085;-88
2022/09/02 04:55:00;;;;;;;1.80;1.70;;;;;;;13.88;60.97;101474.75;5072774;28;20275;-85
2022/09/02 04:57:26;;;;;;;2.40;2.07;;;;;;;13.90;59.94;101466.88;5074036;28;20102;-87
2022/09/02 04:59:51;;;;;;;1.80;1.70;;;;;;;13.93;59.88;101471.16;5073640;28;20350;-86
2022/09/02 05:02:18;;;;;;;1.40;1.30;;;;;;;13.97;59.52;101467.63;5072949;28;20027;-88
2022/09/02 05:04:44;;;;;;;1.98;1.77;;;;;;;13.99;61.04;101465.84;5073418;28;20094;-87
2022/09/02 05:07:10;;;;;;;1.60;1.50;;;;;;;14.01;59.62;101466.69;5072399;28;20040;-88
2022/09/02 05:09:37;;;;;;;2.28;2.00;;;;;;;14.05;59.71;101470.94;5072851;28;20423;-87
2022/09/02 05:12:03;;;;;;;1.73;1.63;;;;;;;14.08;59.41;101470.00;5073428;28;20078;-87
2022/09/02 05:14:28;;;;;;;2.50;2.00;;;;;;;14.11;59.48;101472.56;5073327;28;20028;-87
2022/09/02 05:16:54;;;;;;;1.83;1.70;;;;;;;14.17;58.55;101475.06;5072747;28;20411;-88
2022/09/02 05:19:22;;;;;;;1.70;1.60;;;;;;;14.16;60.82;101473.34;5073602;28;20115;-87
2022/09/02 05:21:49;;;;;;;2.45;1.77;;;;;;;14.19;59.51;101473.25;5072511;28;20036;-88
2022/09/02 05:24:15;;;;;;;3.40;2.13;;;;;;;14.19;60.93;101476.75;5073172;28;20086;-87
2022/09/02 05:26:43;;;;;;;2.03;1.90;;;;;;;14.21;59.59;101477.59;5073214;28;20028;-87
2022/09/02 05:29:10;;;;;;;1.70;1.60;;;;;;;14.26;59.42;101472.25;5072098;28;20028;-87
2022/09/02 05:31:37;;;;;;;1.58;1.48;;;;;;;14.32;59.80;101479.09;5073498;28;20028;-87
2022/09/02 05:34:02;;;;;;;;;;;;;;;14.34;59.33;101470.34;5073286;28;20052;-87
2022/09/02 05:36:27;;;;;;;1.70;1.47;;;;;;;14.38;59.71;101476.34;5064386;28;19946;-87
2022/09/02 05:38:53;;;;;;;2.73;2.00;;;;;;;14.39;60.09;101472.84;5072624;28;20461;-88
2022/09/02 05:41:22;;;;;;;2.93;2.10;;;;;;;14.42;59.67;101477.16;5072539;28;20024;-87
2022/09/02 05:43:49;;;;;;;5.10;2.50;;;;;;;14.41;60.06;101478.91;5072436;28;20021;-86
2022/09/02 05:46:17;;;;;;;2.35;1.85;;;;;;;14.46;59.44;101476.19;5073314;28;20028;-85
2022/09/02 05:51:29;;;;;;;2.30;2.10;;;;;;;14.52;60.11;101476.09;5069331;28;20040;-90
2022/09/02 05:53:56;;;;;;;1.98;1.80;;;;;;;14.56;59.47;101477.72;5066142;28;20028;-92
2022/09/02 05:56:22;;;;;;;1.60;1.50;;;;;;;14.61;59.68;101473.25;5066066;28;20025;-91
2022/09/02 05:58:48;;;;;;;1.52;1.42;;;;;;;14.66;59.80;101474.00;5073619;28;20093;-92
2022/09/02 06:01:16;;;;;;;2.15;1.50;;;;;;;14.70;59.35;101474.81;5072921;28;20111;-81
2022/09/02 06:03:41;;;;;;;1.55;1.45;;;;;;;14.72;59.41;101477.41;5066444;28;20040;-82
2022/09/02 06:06:07;;;;;;;3.27;1.67;;;;;;;14.78;59.63;101474.66;5072047;28;20532;-81
2022/09/02 06:08:34;;;;;;;1.80;1.60;;;;;;;14.81;59.22;101474.59;5072685;28;20461;-82
2022/09/02 06:11:00;;;;;;;;;;;;;;;14.84;59.18;101474.53;5072347;28;20032;-82
2022/09/02 06:13:27;;;;;;;2.85;1.40;;;;;;;14.86;58.74;101469.25;5072688;28;19912;-82
2022/09/02 06:15:56;;;;;;;1.25;1.20;;;;;;;14.90;59.09;101470.91;5074588;28;20035;-82
2022/09/02 06:18:23;;;;;;;1.73;1.40;;;;;;;14.96;58.73;101470.75;5075903;28;20039;-82
2022/09/02 06:20:48;;;;;;;1.30;1.20;;;;;;;15.02;58.33;101472.38;5076678;28;20025;-82
2022/09/02 06:23:14;;;;;;;1.27;1.13;;;;;;;15.08;57.71;101472.25;5076826;28;20492;-82
2022/09/02 06:25:43;;;;;;;1.90;1.50;;;;;;;15.08;59.13;101470.47;5076086;28;20032;-82
2022/09/02 06:28:10;;;;;;;1.63;1.52;;;;;;;15.11;59.68;101473.03;5076221;28;20487;-81
2022/09/02 06:30:37;;;;;;;3.03;1.38;;;;;;;15.14;59.20;101467.69;5076161;28;20036;-82
2022/09/02 06:33:03;;;;;;;2.65;2.00;;;;;;;15.17;59.42;101469.41;5075247;28;20036;-82
2022/09/02 06:35:36;;;;;;;1.90;1.80;;;;;;;15.20;59.28;101464.06;5076303;28;20024;-82
2022/09/02 06:38:02;;;;;;;2.17;1.55;;;;;;;15.27;59.21;101476.13;5073467;28;20033;-81
2022/09/02 06:40:27;;;;;;;1.60;1.50;;;;;;;15.32;59.27;101472.50;5073526;28;20031;-82
2022/09/02 06:42:53;;;;;;;2.60;1.60;;;;;;;15.35;59.32;101470.69;5072999;28;20420;-81
2022/09/02 06:45:19;;;;;;;1.70;1.60;;;;;;;15.40;58.98;101460.97;5075847;28;20043;-81
2022/09/02 06:47:44;;;;;;;1.48;1.38;;;;;;;15.48;58.52;101462.53;5075005;28;20029;-82
2022/09/02 06:50:10;;;;;;;2.23;1.87;;;;;;;15.52;58.75;101458.94;5073651;28;20039;-82
2022/09/02 06:52:36;;;;;;;1.55;1.42;;;;;;;15.57;58.91;101455.28;5074271;28;20027;-82
2022/09/02 06:55:02;;;;;;;4.07;1.97;;;;;;;15.64;59.19;101463.00;5069494;28;20039;-91
2022/09/02 06:57:28;;;;;;;4.72;2.20;;;;;;;15.70;57.75;101457.56;5073019;28;20294;-87
2022/09/02 06:59:53;;;;;;;3.37;2.00;;;;;;;15.73;58.89;101458.34;5075037;28;20024;-87
2022/09/02 07:02:18;;;;;;;3.63;2.00;;;;;;;15.81;58.96;101465.16;5074976;28;20461;-87
2022/09/02 07:07:27;;;;;;;5.97;2.92;;;;;;;15.97;57.32;101452.53;5067340;28;20040;-88
2022/09/02 07:09:54;;;;;;;5.93;3.00;;;;;;;15.99;57.76;101448.97;5075017;28;20029;-88
2022/09/02 07:12:19;;;;;;;8.23;3.33;;;;;;;16.08;58.15;101453.09;5043956;28;20035;-88
2022/09/02 07:14:45;;;;;;;5.63;2.90;;;;;;;16.13;57.73;101453.78;5073291;28;20058;-86
2022/09/02 07:17:16;;;;;;;4.93;2.80;;;;;;;16.23;57.92;101450.91;5075021;28;20032;-86
2022/09/02 07:19:42;;;;;;;5.00;2.90;;;;;;;16.31;57.58;101454.19;5074821;28;20043;-92
2022/09/02 07:22:08;;;;;;;3.83;2.70;;;;;;;16.38;57.91;101453.06;5075361;28;20028;-91
2022/09/02 07:24:33;;;;;;;4.40;2.80;;;;;;;16.47;57.90;101450.16;5074859;28;20469;-93
2022/09/02 07:26:59;;;;;;;5.53;2.70;;;;;;;16.55;57.64;101449.94;5074547;28;20029;-90
2022/09/02 07:29:25;;;;;;;5.47;2.90;;;;;;;16.64;57.82;101454.06;5073749;28;20131;-91
2022/09/02 07:31:50;;;;;;;6.83;3.13;;;;;;;16.73;57.01;101450.25;5075481;28;20125;-90
2022/09/02 07:34:16;;;;;;;5.77;3.37;;;;;;;16.79;56.85;101445.69;5076396;28;20492;-91
2022/09/02 07:36:44;;;;;;;6.55;3.47;;;;;;;16.89;57.26;101451.50;5068853;28;20052;-85
2022/09/02 07:39:10;;;;;;;5.32;2.60;;;;;;;16.96;56.94;101441.72;5074453;28;20040;-86
2022/09/02 07:41:36;;;;;;;6.05;3.00;;;;;;;17.05;56.21;101446.66;5072322;28;20032;-85
2022/09/02 07:44:04;;;;;;;8.45;4.00;;;;;;;17.11;56.38;101446.44;5070739;28;20028;-87
2022/09/02 07:46:30;;;;;;;5.72;3.08;;;;;;;17.19;56.88;101443.56;5073755;28;20023;-88
2022/09/02 07:48:57;;;;;;;5.63;3.20;;;;;;;17.26;56.83;101446.84;5075424;28;20029;-88
2022/09/02 07:51:23;;;;;;;7.75;3.33;;;;;;;17.33;56.10;101444.88;5067010;28;20384;-87
2022/09/02 07:53:50;;;;;;;7.90;3.50;;;;;;;17.39;56.42;101453.38;5072994;28;20024;-87
2022/09/02 07:56:16;;;;;;;5.45;3.10;;;;;;;17.44;56.45;101442.72;5066134;28;20020;-83
2022/09/02 07:58:43;;;;;;;7.72;3.80;;;;;;;17.49;56.03;101446.06;5074994;28;20066;-84
2022/09/02 08:01:10;;;;;;;11.63;4.22;;;;;;;17.55;55.59;101450.25;5074608;28;20111;-83
2022/09/02 08:03:37;;;;;;;13.95;5.38;;;;;;;17.61;55.43;101452.66;5073548;28;20480;-85
2022/09/02 08:06:02;;;;;;;12.85;5.00;;;;;;;17.64;55.73;101449.03;5074478;28;20032;-85
2022/09/02 08:08:28;;;;;;;10.63;4.80;;;;;;;17.69;55.58;101449.75;5074608;28;20082;-86
2022/09/02 08:10:54;;;;;;;15.23;5.13;;;;;;;17.73;55.80;101441.72;5073837;28;20025;-90
2022/09/02 08:13:20;;;;;;;10.63;4.73;;;;;;;17.82;55.43;101442.28;5075565;28;20025;-89
2022/09/02 08:15:46;;;;;;;10.65;4.53;;;;;;;17.88;55.02;101431.56;5075632;28;20028;-90
2022/09/02 08:18:12;;;;;;;13.15;4.90;;;;;;;17.96;55.18;101426.03;5074796;28;20032;-90
2022/09/02 08:20:38;;;;;;;13.23;5.22;;;;;;;18.04;55.11;101438.00;5074955;28;20024;-89
2022/09/02 08:23:05;;;;;;;14.90;6.47;;;;;;;18.13;55.18;101435.91;5073372;28;20016;-90
2022/09/02 08:25:31;;;;;;;17.27;6.78;;;;;;;18.21;54.99;101436.50;5074608;28;20051;-88
2022/09/02 08:27:57;;;;;;;15.25;6.50;;;;;;;18.32;54.86;101431.69;5074205;28;20028;-88
2022/09/02 08:30:22;;;;;;;14.68;6.20;;;;;;;18.43;54.61;101436.53;5074466;28;20033;-88
2022/09/02 08:32:48;;;;;;;17.77;6.87;;;;;;;18.57;54.44;101422.00;5073867;28;20028;-85
2022/09/02 08:35:13;;;;;;;16.30;6.57;;;;;;;18.66;54.74;101419.88;5066708;28;20036;-87
2022/09/02 08:37:39;;;;;;;16.93;6.73;;;;;;;18.75;54.33;101418.63;5070273;28;20040;-87
2022/09/02 08:40:11;;;;;;;16.23;7.00;;;;;;;18.84;54.40;101422.66;5064846;28;20029;-88
2022/09/02 08:42:44;;;;;;;13.27;5.72;;;;;;;18.98;54.24;101422.09;5062773;28;20036;-84
2022/09/02 08:45:29;;;;;;;15.57;6.35;;;;;;;19.08;53.85;101422.59;5072715;28;20047;-83
2022/09/02 08:48:07;;;;;;;14.38;6.00;;;;;;;19.18;53.50;101421.28;5071200;28;20056;-82
2022/09/02 08:50:36;;;;;;;14.65;6.32;;;;;;;19.27;53.42;101415.63;5071265;28;20059;-84
2022/09/02 08:53:29;;;;;;;12.63;5.80;;;;;;;19.40;53.67;101415.97;5072015;28;20064;-79
2022/09/02 08:55:57;;;;;;;10.88;5.03;;;;;;;19.54;53.96;101415.34;5058263;28;20045;-79
2022/09/02 08:58:38;;;;;;;9.73;4.57;;;;;;;19.69;53.40;101418.25;5052197;28;20032;-86
2022/09/02 09:01:13;;;;;;;9.57;4.25;;;;;;;19.79;53.59;101410.75;5052043;28;20492;-85
2022/09/02 09:03:57;;;;;;;10.80;4.63;;;;;;;19.85;52.14;101421.88;5052982;28;20132;-85
2022/09/02 09:06:31;;;;;;;12.02;4.55;;;;;;;19.89;52.70;101418.22;5052657;28;20037;-86
2022/09/02 09:09:12;;;;;;;9.43;4.32;;;;;;;19.98;52.54;101422.22;5051322;28;20032;-86
2022/09/02 09:11:50;;;;;;;8.95;4.20;;;;;;;20.05;52.29;101428.91;5052848;28;20154;-85
2022/09/02 09:14:24;;;;;;;10.00;4.00;;;;;;;20.12;52.22;101424.22;5051878;28;20056;-86
2022/09/02 09:16:56;;;;;;;8.15;4.10;;;;;;;20.19;51.87;101425.63;5060193;28;20055;-86
2022/09/02 09:19:36;;;;;;;5.63;3.28;;;;;;;20.31;52.74;101425.97;5072654;28;20090;-86
2022/09/02 09:22:02;;;;;;;6.82;3.00;;;;;;;20.42;52.68;101421.06;5071405;28;20595;-86
2022/09/02 09:24:40;;;;;;;4.00;2.58;;;;;;;20.55;52.66;101425.75;5072631;28;20020;-85
2022/09/02 09:27:13;;;;;;;10.02;3.80;;;;;;;20.62;51.96;101420.09;5072142;28;20071;-87
2022/09/02 09:29:38;;;;;;;7.15;3.60;;;;;;;20.71;52.07;101418.81;5070852;28;20025;-87
2022/09/02 09:32:14;;;;;;;5.43;2.90;;;;;;;20.83;52.60;101418.22;5072093;28;20085;-87
2022/09/02 09:35:06;;;;;;;7.00;3.22;;;;;;;20.97;51.87;101422.81;5071971;28;20115;-87
2022/09/02 09:37:40;;;;;;;5.95;3.40;;;;;;;21.06;52.10;101418.84;5041483;28;20037;-87
2022/09/02 09:40:19;;;;;;;8.63;4.30;;;;;;;21.16;51.84;101411.31;5071929;28;20046;-87
2022/09/02 09:42:45;;;;;;;13.77;5.30;;;;;;;21.25;50.86;101408.22;5071389;28;20024;-88
2022/09/02 09:45:21;;;;;;;11.02;5.20;;;;;;;21.37;50.88;101405.88;5067153;28;20460;-88
2022/09/02 09:48:29;;;;;;;10.32;5.00;;;;;;;21.49;50.73;101407.88;5072195;28;20491;-87
2022/09/02 09:50:54;;;;;;;13.52;5.80;;;;;;;21.62;49.91;101400.16;5070069;28;20032;-88
2022/09/02 09:53:22;;;;;;;18.53;7.90;;;;;;;21.68;49.62;101401.63;5026759;22;1454186;-87
2022/09/02 09:56:05;;;;;;;17.63;7.43;;;;;;;21.79;49.06;101391.34;5053058;28;20068;-87
2022/09/02 09:58:42;;;;;;;17.50;7.45;;;;;;;21.93;47.27;101390.63;5053043;28;20017;-86
2022/09/02 10:01:18;;;;;;;17.67;8.00;;;;;;;22.08;48.65;101401.25;5052566;28;20022;-88
2022/09/02 10:04:00;;;;;;;17.15;7.60;;;;;;;22.18;48.14;101391.91;5052024;28;20021;-86
2022/09/02 10:06:29;;;;;;;15.27;6.78;;;;;;;22.32;48.69;101381.38;5053112;28;20067;-86
2022/09/02 10:09:18;;;;;;;16.33;6.70;;;;;;;22.49;48.48;101379.63;5052165;28;20098;-86
2022/09/02 10:12:07;;;;;;;12.20;5.57;;;;;;;22.71;48.16;101381.03;5053224;28;20078;-88
2022/09/02 10:14:37;;;;;;;12.50;6.05;;;;;;;22.87;47.27;101387.13;5057509;28;20056;-87
2022/09/02 10:17:36;;;;;;;15.52;6.60;;;;;;;23.00;47.58;101381.97;5051531;28;20057;-86
2022/09/02 10:20:30;;;;;;;15.70;6.30;;;;;;;23.16;46.95;101373.97;5052219;28;20135;-85
2022/09/02 10:23:20;;;;;;;15.23;6.32;;;;;;;23.31;46.89;101374.84;5052101;28;20029;-87
2022/09/02 10:25:54;;;;;;;14.82;6.13;;;;;;;23.52;46.59;101356.81;5053216;28;20032;-92
2022/09/02 10:28:33;;;;;;;9.90;4.95;;;;;;;23.76;45.24;101364.13;5058644;28;20411;-89
2022/09/02 10:31:15;;;;;;;8.35;4.30;;;;;;;24.05;46.47;101358.81;5072911;28;20020;-90
2022/09/02 10:34:10;;;;;;;8.88;4.22;;;;;;;24.40;43.21;101355.69;5070968;28;20029;-91
2022/09/02 10:37:07;;;;;;;7.20;3.95;;;;;;;24.71;43.00;101353.66;5033391;28;20033;-92
2022/09/02 10:40:07;;;;;;;5.90;3.35;;;;;;;24.92;42.97;101354.03;5033149;28;20036;-93
2022/09/02 10:43:00;;;;;;;8.43;3.78;;;;;;;25.14;38.99;101353.38;5030141;28;20040;-95
2022/09/02 10:45:45;;;;;;;6.85;3.42;;;;;;;25.27;41.49;101356.06;5032973;28;20017;-94
2022/09/02 10:48:31;;;;;;;4.80;3.05;;;;;;;25.41;41.19;101348.94;5033045;28;20025;-94
2022/09/02 10:51:05;;;;;;;5.22;3.10;;;;;;;25.55;38.06;101347.97;5030898;28;20068;-92
2022/09/02 10:53:58;;;;;;;3.75;2.85;;;;;;;25.69;38.37;101347.81;5031879;28;20091;-86
2022/09/02 10:56:39;;;;;;;5.18;2.67;;;;;;;25.86;38.65;101343.94;5053846;28;20043;-88
2022/09/02 10:59:13;;;;;;;4.03;2.70;;;;;;;25.95;38.41;101337.13;5071266;28;20499;-87
2022/09/02 11:01:56;;;;;;;7.90;4.20;;;;;;;25.97;35.95;101343.19;5073613;28;20021;-85
2022/09/02 11:04:42;;;;;;;5.93;3.50;;;;;;;26.06;37.32;101339.00;5076065;28;20034;-85
2022/09/02 11:07:12;;;;;;;6.45;3.33;;;;;;;26.12;36.23;101329.75;5072791;28;20038;-87
2022/09/02 11:09:44;;;;;;;8.25;3.70;;;;;;;26.21;37.53;101326.41;5076015;28;20012;-86
2022/09/02 11:12:19;;;;;;;10.40;4.60;;;;;;;26.20;35.23;101325.53;5074965;28;20370;-85
2022/09/02 11:15:03;;;;;;;9.90;4.55;;;;;;;26.37;33.88;101326.09;5075099;28;20059;-85
2022/09/02 11:17:51;;;;;;;7.53;3.78;;;;;;;26.42;36.13;101318.63;5075749;28;20511;-87
2022/09/02 11:20:44;;;;;;;7.43;3.90;;;;;;;26.55;36.29;101320.34;5074950;28;20029;-85
2022/09/02 11:23:38;;;;;;;8.18;4.40;;;;;;;26.58;33.37;101312.13;5075586;28;20032;-85
2022/09/02 11:26:10;;;;;;;6.93;3.97;;;;;;;26.58;34.14;101312.13;5074358;28;20036;-86
2022/09/02 11:29:06;;;;;;;6.32;3.40;;;;;;;26.48;31.89;101296.88;5074141;28;20344;-85
2022/09/02 11:31:32;;;;;;;5.55;3.60;;;;;;;26.53;34.17;101307.16;5073989;28;20073;-85
2022/09/02 11:34:16;;;;;;;16.60;8.13;;;;;;;26.61;34.71;101302.09;5066205;28;20033;-86
2022/09/02 11:36:42;;;;;;;18.85;9.35;;;;;;;26.72;33.22;101293.31;5054906;28;20017;-84
2022/09/02 11:39:39;;;;;;;12.60;6.53;;;;;;;26.84;33.59;101299.50;5053741;28;20040;-85
2022/09/02 11:42:31;;;;;;;8.85;4.78;;;;;;;26.88;34.27;101289.47;5054379;28;20028;-85